createdAt,value
2022-09-28T00:00:58.157Z,0.00
2022-09-28T00:01:58.248Z,0.00
2022-09-28T00:02:58.232Z,0.00
2022-09-28T00:03:58.158Z,0.00
2022-09-28T00:04:58.133Z,0.00
2022-09-28T00:05:58.081Z,0.00
2022-09-28T00:06:58.085Z,0.00
2022-09-28T00:07:58.073Z,0.00
2022-09-28T00:08:58.097Z,0.00
2022-09-28T00:09:58.100Z,0.00
2022-09-28T00:10:58.048Z,0.00
2022-09-28T00:11:58.056Z,0.00
2022-09-28T00:12:58.020Z,0.00
2022-09-28T00:13:58.007Z,0.00
2022-09-28T00:14:58.055Z,0.00
2022-09-28T00:15:58.001Z,0.00
2022-09-28T00:16:57.980Z,0.00
2022-09-28T00:17:57.969Z,0.00
2022-09-28T00:18:57.963Z,0.00
2022-09-28T00:19:58.004Z,0.00
2022-09-28T00:20:57.936Z,0.00
2022-09-28T00:21:57.930Z,0.00
2022-09-28T00:22:57.915Z,0.00
2022-09-28T00:23:57.898Z,0.00
2022-09-28T00:24:57.898Z,0.00
2022-09-28T00:25:57.888Z,0.00
2022-09-28T00:26:57.869Z,0.00
2022-09-28T00:27:57.878Z,0.00
2022-09-28T00:28:57.845Z,0.00
2022-09-28T00:29:57.828Z,0.00
2022-09-28T00:30:57.856Z,0.00
2022-09-28T00:31:57.860Z,0.00
2022-09-28T00:32:57.803Z,0.00
2022-09-28T00:33:57.790Z,0.00
2022-09-28T00:34:57.787Z,0.00
2022-09-28T00:35:57.782Z,0.00
2022-09-28T00:36:57.755Z,0.00
2022-09-28T00:37:57.779Z,0.00
2022-09-28T00:38:57.741Z,0.00
2022-09-28T00:39:57.752Z,0.00
2022-09-28T00:40:57.823Z,0.00
2022-09-28T00:41:57.703Z,0.00
2022-09-28T00:42:57.709Z,0.00
2022-09-28T00:43:57.668Z,0.00
2022-09-28T00:44:57.675Z,0.00
2022-09-28T00:45:57.701Z,0.00
2022-09-28T00:46:57.648Z,0.00
2022-09-28T00:47:57.668Z,0.00
2022-09-28T00:48:57.631Z,0.00
2022-09-28T00:49:57.612Z,0.00
2022-09-28T00:50:57.624Z,0.00
2022-09-28T00:51:57.590Z,0.00
2022-09-28T00:52:57.598Z,0.00
2022-09-28T00:53:57.569Z,0.00
2022-09-28T00:54:57.565Z,0.00
2022-09-28T00:55:57.572Z,0.00
2022-09-28T00:56:57.551Z,0.00
2022-09-28T00:57:57.569Z,0.00
2022-09-28T00:58:57.524Z,0.00
2022-09-28T00:59:57.511Z,0.00
2022-09-28T01:00:57.580Z,0.00
2022-09-28T01:01:57.502Z,0.00
2022-09-28T01:02:57.521Z,0.00
2022-09-28T01:03:57.462Z,0.00
2022-09-28T01:04:57.483Z,0.00
2022-09-28T01:05:57.471Z,0.00
2022-09-28T01:06:57.457Z,0.00
2022-09-28T01:07:57.445Z,0.00
2022-09-28T01:08:57.420Z,0.00
2022-09-28T01:09:57.413Z,0.00
2022-09-28T01:10:57.440Z,0.00
2022-09-28T01:11:57.430Z,0.00
2022-09-28T01:12:57.365Z,0.00
2022-09-28T01:13:57.348Z,0.00
2022-09-28T01:14:57.347Z,0.00
2022-09-28T01:15:57.469Z,0.00
2022-09-28T01:16:57.347Z,0.00
2022-09-28T01:17:57.300Z,0.00
2022-09-28T01:18:57.308Z,0.00
2022-09-28T01:19:57.290Z,0.00
2022-09-28T01:20:57.296Z,0.00
2022-09-28T01:21:57.293Z,0.00
2022-09-28T01:22:57.256Z,0.00
2022-09-28T01:23:57.247Z,0.00
2022-09-28T01:24:57.239Z,0.00
2022-09-28T01:25:57.232Z,0.00
2022-09-28T01:26:57.277Z,0.00
2022-09-28T01:27:58.459Z,0.00
2022-09-28T01:28:57.212Z,0.00
2022-09-28T01:29:57.182Z,0.00
2022-09-28T01:30:57.178Z,0.00
2022-09-28T01:31:57.212Z,0.00
2022-09-28T01:32:57.184Z,0.00
2022-09-28T01:33:57.131Z,0.00
2022-09-28T01:34:57.119Z,0.00
2022-09-28T01:35:57.154Z,0.00
2022-09-28T01:36:57.098Z,0.00
2022-09-28T01:37:57.082Z,0.00
2022-09-28T01:38:57.116Z,0.00
2022-09-28T01:39:57.081Z,0.00
2022-09-28T01:40:57.175Z,0.00
2022-09-28T01:41:57.051Z,0.00
2022-09-28T01:42:57.035Z,0.00
2022-09-28T01:43:57.047Z,0.00
2022-09-28T01:44:57.014Z,0.00
2022-09-28T01:45:57.074Z,0.00
2022-09-28T01:46:57.005Z,0.00
2022-09-28T01:47:56.998Z,0.00
2022-09-28T01:48:56.990Z,0.00
2022-09-28T01:49:56.954Z,0.00
2022-09-28T01:50:57.610Z,0.00
2022-09-28T01:51:56.951Z,0.00
2022-09-28T01:52:56.936Z,0.00
2022-09-28T01:53:56.935Z,0.00
2022-09-28T01:54:56.905Z,0.00
2022-09-28T01:55:56.891Z,0.00
2022-09-28T01:56:56.919Z,0.00
2022-09-28T01:57:56.879Z,0.00
2022-09-28T01:58:56.857Z,0.00
2022-09-28T01:59:56.863Z,0.00
2022-09-28T02:00:56.933Z,0.00
2022-09-28T02:01:56.907Z,0.00
2022-09-28T02:02:56.827Z,0.00
2022-09-28T02:03:56.839Z,0.00
2022-09-28T02:04:56.816Z,0.00
2022-09-28T02:05:56.836Z,0.00
2022-09-28T02:06:56.792Z,0.00
2022-09-28T02:07:56.779Z,0.00
2022-09-28T02:08:56.811Z,0.00
2022-09-28T02:09:56.748Z,0.00
2022-09-28T02:10:56.725Z,0.00
2022-09-28T02:11:56.746Z,0.00
2022-09-28T02:12:56.767Z,0.00
2022-09-28T02:13:56.699Z,0.00
2022-09-28T02:14:56.692Z,0.00
2022-09-28T02:15:56.684Z,0.00
2022-09-28T02:16:56.680Z,0.00
2022-09-28T02:17:56.664Z,0.00
2022-09-28T02:18:56.662Z,0.00
2022-09-28T02:19:56.641Z,0.00
2022-09-28T02:20:56.614Z,0.00
2022-09-28T02:21:56.640Z,0.00
2022-09-28T02:22:56.646Z,0.00
2022-09-28T02:24:26.971Z,0.00
2022-09-28T02:24:56.589Z,0.00
2022-09-28T02:25:56.572Z,0.00
2022-09-28T02:27:04.401Z,0.00
2022-09-28T02:27:57.395Z,0.00
2022-09-28T02:28:56.548Z,0.00
2022-09-28T02:29:56.544Z,0.00
2022-09-28T02:30:56.516Z,0.00
2022-09-28T02:31:56.579Z,0.00
2022-09-28T02:32:56.488Z,0.00
2022-09-28T02:33:57.064Z,0.00
2022-09-28T02:34:56.474Z,0.00
2022-09-28T02:35:56.460Z,0.00
2022-09-28T02:36:56.474Z,0.00
2022-09-28T02:37:56.430Z,0.00
2022-09-28T02:38:56.428Z,0.00
2022-09-28T02:39:58.402Z,0.00
2022-09-28T02:40:56.471Z,0.00
2022-09-28T02:41:56.409Z,0.00
2022-09-28T02:42:56.378Z,0.00
2022-09-28T02:43:56.383Z,0.00
2022-09-28T02:44:56.375Z,0.00
2022-09-28T02:45:56.423Z,0.00
2022-09-28T02:46:56.907Z,0.00
2022-09-28T02:47:56.350Z,0.00
2022-09-28T02:49:17.321Z,0.00
2022-09-28T02:49:56.306Z,0.00
2022-09-28T02:50:56.299Z,0.00
2022-09-28T02:51:56.314Z,0.00
2022-09-28T02:52:56.836Z,0.00
2022-09-28T02:53:56.265Z,0.00
2022-09-28T02:54:56.282Z,0.00
2022-09-28T02:55:56.261Z,0.00
2022-09-28T02:56:56.246Z,0.00
2022-09-28T02:57:56.788Z,0.00
2022-09-28T02:58:56.215Z,0.00
2022-09-28T02:59:56.194Z,0.00
2022-09-28T03:00:56.251Z,0.00
2022-09-28T03:01:56.222Z,0.00
2022-09-28T03:02:56.177Z,0.00
2022-09-28T03:03:56.168Z,0.00
2022-09-28T03:04:56.160Z,0.00
2022-09-28T03:05:56.140Z,0.00
2022-09-28T03:06:56.139Z,0.00
2022-09-28T03:07:56.114Z,0.00
2022-09-28T03:08:56.110Z,0.00
2022-09-28T03:09:56.103Z,0.00
2022-09-28T03:10:56.074Z,0.00
2022-09-28T03:11:56.090Z,0.00
2022-09-28T03:12:56.067Z,0.00
2022-09-28T03:13:56.061Z,0.00
2022-09-28T03:14:56.042Z,0.00
2022-09-28T03:15:56.065Z,0.00
2022-09-28T03:16:56.021Z,0.00
2022-09-28T03:17:56.015Z,0.00
2022-09-28T03:18:55.996Z,0.00
2022-09-28T03:19:56.035Z,0.00
2022-09-28T03:20:55.971Z,0.00
2022-09-28T03:21:55.964Z,0.00
2022-09-28T03:23:20.081Z,0.00
2022-09-28T03:23:55.945Z,0.00
2022-09-28T03:24:55.950Z,0.00
2022-09-28T03:25:55.910Z,0.00
2022-09-28T03:26:55.906Z,0.00
2022-09-28T03:27:55.947Z,0.00
2022-09-28T03:28:55.896Z,0.00
2022-09-28T03:29:55.879Z,0.00
2022-09-28T03:30:55.875Z,0.00
2022-09-28T03:31:55.923Z,0.00
2022-09-28T03:32:55.865Z,0.00
2022-09-28T03:33:55.838Z,0.00
2022-09-28T03:34:55.832Z,0.00
2022-09-28T03:35:55.817Z,0.00
2022-09-28T03:36:55.794Z,0.00
2022-09-28T03:37:55.875Z,0.00
2022-09-28T03:38:55.774Z,0.00
2022-09-28T03:39:55.768Z,0.00
2022-09-28T03:40:55.839Z,0.00
2022-09-28T03:41:55.738Z,0.00
2022-09-28T03:42:55.749Z,0.00
2022-09-28T03:43:55.718Z,0.00
2022-09-28T03:44:55.725Z,0.00
2022-09-28T03:45:55.834Z,0.00
2022-09-28T03:46:55.689Z,0.00
2022-09-28T03:47:55.691Z,0.00
2022-09-28T03:48:55.692Z,0.00
2022-09-28T03:49:55.649Z,0.00
2022-09-28T03:50:55.650Z,0.00
2022-09-28T03:51:56.907Z,0.00
2022-09-28T03:52:55.661Z,0.00
2022-09-28T03:53:55.606Z,0.00
2022-09-28T03:54:55.613Z,0.00
2022-09-28T03:55:55.593Z,0.00
2022-09-28T03:56:56.905Z,0.00
2022-09-28T03:57:55.585Z,0.00
2022-09-28T03:58:56.123Z,0.00
2022-09-28T03:59:55.550Z,0.00
2022-09-28T04:00:55.590Z,0.00
2022-09-28T04:01:55.609Z,0.00
2022-09-28T04:02:55.521Z,0.00
2022-09-28T04:03:55.513Z,0.00
2022-09-28T04:04:55.488Z,0.00
2022-09-28T04:05:55.478Z,0.00
2022-09-28T04:06:56.779Z,0.00
2022-09-28T04:07:55.496Z,0.00
2022-09-28T04:08:55.442Z,0.00
2022-09-28T04:09:55.959Z,0.00
2022-09-28T04:10:55.431Z,0.00
2022-09-28T04:12:03.858Z,0.00
2022-09-28T04:12:55.481Z,0.00
2022-09-28T04:13:55.425Z,0.00
2022-09-28T04:14:55.398Z,0.00
2022-09-28T04:15:56.013Z,0.00
2022-09-28T04:16:55.359Z,0.00
2022-09-28T04:17:55.363Z,0.00
2022-09-28T04:18:55.352Z,0.00
2022-09-28T04:19:55.333Z,0.00
2022-09-28T04:20:55.345Z,0.00
2022-09-28T04:21:55.304Z,0.00
2022-09-28T04:22:55.320Z,0.00
2022-09-28T04:23:55.281Z,0.00
2022-09-28T04:24:55.267Z,0.00
2022-09-28T04:25:56.493Z,0.00
2022-09-28T04:26:55.260Z,0.00
2022-09-28T04:27:55.258Z,0.00
2022-09-28T04:28:55.268Z,0.00
2022-09-28T04:29:55.211Z,0.00
2022-09-28T04:30:55.218Z,0.00
2022-09-28T04:31:55.890Z,0.00
2022-09-28T04:32:55.195Z,0.00
2022-09-28T04:33:55.172Z,0.00
2022-09-28T04:34:55.186Z,0.00
2022-09-28T04:35:55.153Z,0.00
2022-09-28T04:36:55.139Z,0.00
2022-09-28T04:37:55.174Z,0.00
2022-09-28T04:38:55.117Z,0.00
2022-09-28T04:39:55.097Z,0.00
2022-09-28T04:40:55.191Z,0.00
2022-09-28T04:41:55.080Z,0.00
2022-09-28T04:42:55.977Z,0.00
2022-09-28T04:43:55.072Z,0.00
2022-09-28T04:44:55.914Z,0.00
2022-09-28T04:45:55.126Z,0.00
2022-09-28T04:46:55.029Z,0.00
2022-09-28T04:47:55.915Z,0.00
2022-09-28T04:48:55.011Z,0.00
2022-09-28T04:49:55.005Z,0.00
2022-09-28T04:50:55.033Z,4.00
2022-09-28T04:51:54.978Z,0.00
2022-09-28T04:52:54.985Z,4.00
2022-09-28T04:53:54.963Z,4.00
2022-09-28T04:54:54.944Z,4.00
2022-09-28T04:55:54.939Z,4.00
2022-09-28T04:56:54.950Z,4.00
2022-09-28T04:57:54.916Z,8.00
2022-09-28T04:58:54.896Z,8.00
2022-09-28T04:59:54.885Z,12.00
2022-09-28T05:00:54.965Z,12.00
2022-09-28T05:01:54.959Z,12.00
2022-09-28T05:02:54.871Z,16.00
2022-09-28T05:03:54.852Z,16.00
2022-09-28T05:04:54.852Z,20.00
2022-09-28T05:05:54.823Z,24.00
2022-09-28T05:06:54.817Z,28.00
2022-09-28T05:07:54.868Z,32.00
2022-09-28T05:08:54.788Z,36.00
2022-09-28T05:09:54.782Z,40.00
2022-09-28T05:10:59.437Z,44.00
2022-09-28T05:11:54.757Z,56.00
2022-09-28T05:12:54.765Z,60.00
2022-09-28T05:13:54.763Z,64.00
2022-09-28T05:14:54.732Z,72.00
2022-09-28T05:15:58.081Z,84.00
2022-09-28T05:16:54.742Z,88.00
2022-09-28T05:17:54.717Z,100.00
2022-09-28T05:18:54.680Z,108.00
2022-09-28T05:19:54.670Z,120.00
2022-09-28T05:20:54.660Z,128.00
2022-09-28T05:22:01.203Z,140.00
2022-09-28T05:22:54.650Z,152.00
2022-09-28T05:23:54.627Z,160.00
2022-09-28T05:24:54.619Z,172.00
2022-09-28T05:25:54.636Z,180.00
2022-09-28T05:26:54.608Z,196.00
2022-09-28T05:27:54.603Z,204.00
2022-09-28T05:28:54.574Z,220.00
2022-09-28T05:29:54.565Z,236.00
2022-09-28T05:30:54.561Z,252.00
2022-09-28T05:31:54.589Z,268.00
2022-09-28T05:32:54.550Z,284.00
2022-09-28T05:33:54.508Z,296.00
2022-09-28T05:34:54.518Z,308.00
2022-09-28T05:35:57.850Z,328.00
2022-09-28T05:36:54.481Z,344.00
2022-09-28T05:37:54.493Z,360.00
2022-09-28T05:38:54.465Z,380.00
2022-09-28T05:39:54.453Z,392.00
2022-09-28T05:40:54.489Z,408.00
2022-09-28T05:41:54.435Z,428.00
2022-09-28T05:42:54.440Z,436.00
2022-09-28T05:43:54.410Z,452.00
2022-09-28T05:44:54.404Z,452.00
2022-09-28T05:45:55.835Z,464.00
2022-09-28T05:46:54.382Z,476.00
2022-09-28T05:47:54.384Z,488.00
2022-09-28T05:48:54.361Z,512.00
2022-09-28T05:49:54.361Z,516.00
2022-09-28T05:50:54.329Z,528.00
2022-09-28T05:51:54.320Z,528.00
2022-09-28T05:52:54.328Z,520.00
2022-09-28T05:53:54.294Z,500.00
2022-09-28T05:54:54.295Z,508.00
2022-09-28T05:55:54.273Z,528.00
2022-09-28T05:56:54.272Z,552.00
2022-09-28T05:57:54.283Z,572.00
2022-09-28T05:58:54.252Z,580.00
2022-09-28T05:59:54.237Z,596.00
2022-09-28T06:00:54.239Z,612.00
2022-09-28T06:01:54.214Z,628.00
2022-09-28T06:02:54.229Z,656.00
2022-09-28T06:03:54.187Z,692.00
2022-09-28T06:04:54.184Z,724.00
2022-09-28T06:05:54.175Z,736.00
2022-09-28T06:06:54.179Z,772.00
2022-09-28T06:07:54.275Z,780.00
2022-09-28T06:08:54.144Z,792.00
2022-09-28T06:09:54.123Z,808.00
2022-09-28T06:10:54.119Z,828.00
2022-09-28T06:11:54.147Z,844.00
2022-09-28T06:12:54.118Z,852.00
2022-09-28T06:13:54.085Z,868.00
2022-09-28T06:14:54.060Z,864.00
2022-09-28T06:15:54.063Z,884.00
2022-09-28T06:16:54.114Z,948.00
2022-09-28T06:17:54.053Z,1012.00
2022-09-28T06:18:54.028Z,1008.00
2022-09-28T06:19:54.007Z,988.00
2022-09-28T06:20:54.015Z,964.00
2022-09-28T06:21:53.990Z,980.00
2022-09-28T06:22:53.999Z,980.00
2022-09-28T06:23:53.977Z,968.00
2022-09-28T06:24:53.962Z,968.00
2022-09-28T06:25:53.958Z,932.00
2022-09-28T06:26:53.939Z,932.00
2022-09-28T06:27:53.951Z,932.00
2022-09-28T06:28:53.921Z,920.00
2022-09-28T06:29:53.906Z,916.00
2022-09-28T06:30:53.975Z,936.00
2022-09-28T06:31:53.881Z,996.00
2022-09-28T06:32:53.896Z,1020.00
2022-09-28T06:33:53.869Z,1048.00
2022-09-28T06:34:56.360Z,1128.00
2022-09-28T06:35:53.846Z,1208.00
2022-09-28T06:36:53.835Z,1228.00
2022-09-28T06:37:53.843Z,1296.00
2022-09-28T06:38:53.809Z,1384.00
2022-09-28T06:39:53.798Z,1392.00
2022-09-28T06:40:53.836Z,1380.00
2022-09-28T06:41:53.785Z,1372.00
2022-09-28T06:42:53.772Z,1380.00
2022-09-28T06:43:53.774Z,1404.00
2022-09-28T06:44:53.738Z,1504.00
2022-09-28T06:45:53.809Z,1572.00
2022-09-28T06:46:53.732Z,1556.00
2022-09-28T06:47:53.732Z,1560.00
2022-09-28T06:48:53.723Z,1620.00
2022-09-28T06:49:53.707Z,1664.00
2022-09-28T06:50:53.694Z,1688.00
2022-09-28T06:51:53.670Z,1724.00
2022-09-28T06:52:53.649Z,1784.00
2022-09-28T06:53:53.657Z,1828.00
2022-09-28T06:54:53.645Z,1864.00
2022-09-28T06:55:53.624Z,1864.00
2022-09-28T06:56:53.625Z,1856.00
2022-09-28T06:57:53.605Z,1852.00
2022-09-28T06:58:53.611Z,1836.00
2022-09-28T06:59:53.573Z,1784.00
2022-09-28T07:00:53.606Z,1800.00
2022-09-28T07:01:53.597Z,1840.00
2022-09-28T07:02:53.579Z,1864.00
2022-09-28T07:03:55.630Z,1948.00
2022-09-28T07:04:53.531Z,1988.00
2022-09-28T07:05:53.518Z,2024.00
2022-09-28T07:06:53.511Z,2048.00
2022-09-28T07:07:53.501Z,2044.00
2022-09-28T07:09:04.248Z,2076.00
2022-09-28T07:09:55.356Z,2136.00
2022-09-28T07:10:53.526Z,2220.00
2022-09-28T07:11:53.477Z,2212.00
2022-09-28T07:12:53.444Z,2140.00
2022-09-28T07:13:53.462Z,2144.00
2022-09-28T07:14:53.752Z,2220.00
2022-09-28T07:15:53.406Z,2288.00
2022-09-28T07:17:11.574Z,2284.00
2022-09-28T07:18:14.690Z,2252.00
2022-09-28T07:18:53.383Z,2296.00
2022-09-28T07:19:53.365Z,2328.00
2022-09-28T07:20:54.689Z,2332.00
2022-09-28T07:22:02.627Z,2348.00
2022-09-28T07:22:53.360Z,2364.00
2022-09-28T07:24:00.983Z,2380.00
2022-09-28T07:25:07.969Z,2396.00
2022-09-28T07:25:53.294Z,2384.00
2022-09-28T07:27:01.045Z,2356.00
2022-09-28T07:27:59.958Z,2280.00
2022-09-28T07:29:00.970Z,2220.00
2022-09-28T07:29:53.775Z,2208.00
2022-09-28T07:31:08.560Z,2252.00
2022-09-28T07:31:53.229Z,2320.00
2022-09-28T07:33:03.550Z,2396.00
2022-09-28T07:33:53.219Z,2464.00
2022-09-28T07:34:58.066Z,2460.00
2022-09-28T07:35:53.193Z,2488.00
2022-09-28T07:36:53.668Z,2528.00
2022-09-28T07:37:53.165Z,2568.00
2022-09-28T07:39:03.976Z,2640.00
2022-09-28T07:39:53.146Z,2656.00
2022-09-28T07:41:08.561Z,2620.00
2022-09-28T07:41:56.683Z,2540.00
2022-09-28T07:43:01.549Z,2480.00
2022-09-28T07:43:53.127Z,2436.00
2022-09-28T07:44:53.088Z,2432.00
2022-09-28T07:45:53.659Z,2400.00
2022-09-28T07:46:53.068Z,2376.00
2022-09-28T07:48:00.196Z,2316.00
2022-09-28T07:48:53.056Z,2272.00
2022-09-28T07:50:07.973Z,2280.00
2022-09-28T07:50:53.029Z,2332.00
2022-09-28T07:52:03.834Z,2440.00
2022-09-28T07:52:53.008Z,2540.00
2022-09-28T07:54:03.053Z,2616.00
2022-09-28T07:54:52.977Z,2648.00
2022-09-28T07:55:52.975Z,2700.00
2022-09-28T07:56:52.968Z,2768.00
2022-09-28T07:57:52.952Z,2872.00
2022-09-28T07:59:00.979Z,2908.00
2022-09-28T07:59:52.925Z,2928.00
2022-09-28T08:01:08.042Z,2892.00
2022-09-28T08:01:52.987Z,2860.00
2022-09-28T08:03:01.545Z,2900.00
2022-09-28T08:03:57.970Z,3092.00
2022-09-28T08:04:59.898Z,3268.00
2022-09-28T08:05:52.876Z,3296.00
2022-09-28T08:07:07.971Z,3296.00
2022-09-28T08:07:52.841Z,3272.00
2022-09-28T08:09:01.559Z,3256.00
2022-09-28T08:09:52.823Z,3356.00
2022-09-28T08:10:52.891Z,3468.00
2022-09-28T08:11:52.803Z,3604.00
2022-09-28T08:12:52.789Z,3716.00
2022-09-28T08:13:58.485Z,3784.00
2022-09-28T08:14:52.763Z,3736.00
2022-09-28T08:16:07.464Z,3676.00
2022-09-28T08:16:53.347Z,3612.00
2022-09-28T08:18:07.959Z,3448.00
2022-09-28T08:18:52.737Z,3484.00
2022-09-28T08:20:02.070Z,3616.00
2022-09-28T08:20:59.479Z,3772.00
2022-09-28T08:21:59.724Z,3948.00
2022-09-28T08:22:52.682Z,3980.00
2022-09-28T08:24:03.988Z,3952.00
2022-09-28T08:24:52.657Z,3976.00
2022-09-28T08:37:54.717Z,4956.00
2022-09-28T08:38:52.004Z,5040.00
2022-09-28T08:39:51.974Z,4972.00
2022-09-28T08:40:52.001Z,4892.00
2022-09-28T08:41:51.950Z,4784.00
2022-09-28T08:42:51.951Z,4576.00
2022-09-28T08:43:51.944Z,4452.00
2022-09-28T08:44:51.944Z,4560.00
2022-09-28T08:45:51.961Z,4808.00
2022-09-28T08:46:51.901Z,5016.00
2022-09-28T08:47:51.899Z,5304.00
2022-09-28T08:49:13.035Z,5396.00
2022-09-28T08:49:51.914Z,5400.00
2022-09-28T08:50:51.857Z,5456.00
2022-09-28T08:51:51.841Z,5556.00
2022-09-28T08:52:51.833Z,5480.00
2022-09-28T08:53:51.841Z,5168.00
2022-09-28T08:54:51.835Z,4920.00
2022-09-28T08:55:51.806Z,4892.00
2022-09-28T08:56:51.814Z,4772.00
2022-09-28T08:57:51.790Z,4556.00
2022-09-28T08:58:51.781Z,4308.00
2022-09-28T08:59:51.775Z,4224.00
2022-09-28T09:00:51.908Z,4312.00
2022-09-28T09:01:53.635Z,4496.00
2022-09-28T09:02:51.773Z,4628.00
2022-09-28T09:03:51.972Z,4876.00
2022-09-28T09:04:51.712Z,5220.00
2022-09-28T09:05:51.686Z,5600.00
2022-09-28T09:06:51.678Z,5720.00
2022-09-28T09:07:51.671Z,5716.00
2022-09-28T09:08:51.687Z,5628.00
2022-09-28T09:09:51.655Z,5616.00
2022-09-28T09:10:51.641Z,5904.00
2022-09-28T09:11:51.646Z,6252.00
2022-09-28T09:13:51.632Z,6712.00
2022-09-28T09:14:51.606Z,6636.00
2022-09-28T09:15:51.599Z,6344.00
2022-09-28T09:16:51.649Z,6180.00
2022-09-28T09:17:51.581Z,6568.00
2022-09-28T09:18:51.665Z,6600.00
2022-09-28T09:19:51.567Z,6488.00
2022-09-28T09:20:51.558Z,6268.00
2022-09-28T09:21:51.533Z,6084.00
2022-09-28T09:22:51.520Z,5800.00
2022-09-28T09:23:51.522Z,5592.00
2022-09-28T09:24:51.523Z,5532.00
2022-09-28T09:25:51.479Z,5800.00
2022-09-28T09:26:51.471Z,6052.00
2022-09-28T09:27:51.450Z,5840.00
2022-09-28T09:28:51.469Z,5300.00
2022-09-28T09:29:51.438Z,4832.00
2022-09-28T09:30:51.465Z,4660.00
2022-09-28T09:31:51.415Z,4448.00
2022-09-28T09:32:51.403Z,4628.00
2022-09-28T09:33:51.411Z,4036.00
2022-09-28T09:34:51.378Z,3772.00
2022-09-28T09:35:51.367Z,3768.00
2022-09-28T09:36:51.351Z,3976.00
2022-09-28T09:37:55.191Z,4428.00
2022-09-28T09:38:51.353Z,4612.00
2022-09-28T09:39:51.320Z,5096.00
2022-09-28T09:40:51.399Z,5416.00
2022-09-28T09:41:51.308Z,5624.00
2022-09-28T09:42:51.285Z,5532.00
2022-09-28T09:43:51.287Z,4748.00
2022-09-28T09:44:51.264Z,5392.00
2022-09-28T09:45:51.375Z,5316.00
2022-09-28T09:46:51.240Z,5480.00
2022-09-28T09:47:51.229Z,5372.00
2022-09-28T09:48:51.231Z,5196.00
2022-09-28T09:49:51.209Z,4956.00
2022-09-28T09:50:51.194Z,4096.00
2022-09-28T09:51:54.147Z,3436.00
2022-09-28T09:52:51.184Z,4012.00
2022-09-28T09:53:51.189Z,4900.00
2022-09-28T09:54:51.176Z,4552.00
2022-09-28T09:55:51.146Z,3732.00
2022-09-28T09:56:51.130Z,3964.00
2022-09-28T09:57:51.147Z,4416.00
2022-09-28T09:58:51.118Z,4824.00
2022-09-28T09:59:51.107Z,5056.00
2022-09-28T10:00:51.118Z,5996.00
2022-09-28T10:01:51.084Z,6552.00
2022-09-28T10:02:51.159Z,6812.00
2022-09-28T10:03:51.072Z,6856.00
2022-09-28T10:04:51.039Z,5776.00
2022-09-28T10:05:51.032Z,6292.00
2022-09-28T10:06:51.026Z,6560.00
2022-09-28T10:07:51.012Z,6592.00
2022-09-28T10:08:50.999Z,6800.00
2022-09-28T10:09:50.996Z,5508.00
2022-09-28T10:10:50.973Z,6816.00
2022-09-28T10:11:50.965Z,6296.00
2022-09-28T10:12:50.959Z,5732.00
2022-09-28T10:13:50.955Z,6088.00
2022-09-28T10:14:50.916Z,6136.00
2022-09-28T10:15:50.913Z,6888.00
2022-09-28T10:16:51.074Z,6964.00
2022-09-28T10:17:50.895Z,6936.00
2022-09-28T10:18:50.900Z,6812.00
2022-09-28T10:19:50.877Z,6300.00
2022-09-28T10:20:50.857Z,5880.00
2022-09-28T10:21:50.855Z,5972.00
2022-09-28T10:22:50.837Z,5168.00
2022-09-28T10:23:50.847Z,5728.00
2022-09-28T10:24:50.820Z,5568.00
2022-09-28T10:25:50.811Z,5368.00
2022-09-28T10:26:50.823Z,5312.00
2022-09-28T10:27:50.794Z,5048.00
2022-09-28T10:28:50.798Z,4892.00
2022-09-28T10:29:50.769Z,4808.00
2022-09-28T10:30:50.856Z,4372.00
2022-09-28T10:31:50.751Z,4896.00
2022-09-28T10:32:50.720Z,5076.00
2022-09-28T10:33:50.742Z,5164.00
2022-09-28T10:34:51.188Z,5208.00
2022-09-28T10:35:50.708Z,5376.00
2022-09-28T10:36:50.686Z,5620.00
2022-09-28T10:37:50.690Z,5772.00
2022-09-28T10:38:50.684Z,5860.00
2022-09-28T10:39:50.654Z,5968.00
2022-09-28T10:40:50.758Z,6088.00
2022-09-28T10:41:50.634Z,6192.00
2022-09-28T10:42:50.639Z,6448.00
2022-09-28T10:43:52.067Z,6828.00
2022-09-28T10:44:50.607Z,7076.00
2022-09-28T10:45:50.658Z,6880.00
2022-09-28T10:46:50.579Z,6604.00
2022-09-28T10:47:50.572Z,6444.00
2022-09-28T10:48:50.586Z,6416.00
2022-09-28T10:49:50.562Z,6432.00
2022-09-28T10:50:50.540Z,6356.00
2022-09-28T10:51:50.524Z,6204.00
2022-09-28T10:52:50.517Z,6080.00
2022-09-28T10:53:50.528Z,6056.00
2022-09-28T10:54:50.488Z,6260.00
2022-09-28T10:55:50.486Z,6552.00
2022-09-28T10:56:50.478Z,6752.00
2022-09-28T10:57:50.464Z,6776.00
2022-09-28T10:58:50.442Z,6904.00
2022-09-28T10:59:50.457Z,7232.00
2022-09-28T11:00:50.419Z,7292.00
2022-09-28T11:01:50.509Z,6864.00
2022-09-28T11:02:50.420Z,6660.00
2022-09-28T11:03:50.408Z,6588.00
2022-09-28T11:04:50.396Z,6520.00
2022-09-28T11:05:50.367Z,6092.00
2022-09-28T11:06:50.468Z,5604.00
2022-09-28T11:07:50.360Z,5260.00
2022-09-28T11:08:50.339Z,5176.00
2022-09-28T11:09:50.349Z,5200.00
2022-09-28T11:10:50.311Z,5192.00
2022-09-28T11:11:50.332Z,5232.00
2022-09-28T11:12:50.293Z,5072.00
2022-09-28T11:13:50.285Z,4968.00
2022-09-28T11:14:50.286Z,5140.00
2022-09-28T11:15:50.363Z,5356.00
2022-09-28T11:16:50.289Z,5800.00
2022-09-28T11:17:50.248Z,6352.00
2022-09-28T11:18:50.240Z,6600.00
2022-09-28T11:19:50.243Z,6416.00
2022-09-28T11:20:50.206Z,6260.00
2022-09-28T11:22:53.416Z,6772.00
2022-09-28T11:23:52.083Z,6928.00
2022-09-28T11:24:52.079Z,7032.00
2022-09-28T11:25:52.051Z,7020.00
2022-09-28T11:26:52.052Z,7164.00
2022-09-28T11:27:52.028Z,7304.00
2022-09-28T11:28:52.059Z,7324.00
2022-09-28T11:29:52.038Z,7180.00
2022-09-28T11:30:52.096Z,7000.00
2022-09-28T11:31:51.985Z,6800.00
2022-09-28T11:32:51.980Z,6712.00
2022-09-28T11:33:51.960Z,6540.00
2022-09-28T11:34:59.567Z,6020.00
2022-09-28T11:35:51.957Z,5584.00
2022-09-28T11:36:51.927Z,4264.00
2022-09-28T11:37:51.914Z,4312.00
2022-09-28T11:38:51.922Z,4032.00
2022-09-28T11:39:51.906Z,3972.00
2022-09-28T11:40:51.967Z,3996.00
2022-09-28T11:41:51.869Z,4040.00
2022-09-28T11:42:51.866Z,4140.00
2022-09-28T11:43:51.895Z,5180.00
2022-09-28T11:44:51.863Z,5248.00
2022-09-28T11:45:51.910Z,5208.00
2022-09-28T11:46:51.825Z,5284.00
2022-09-28T11:47:51.825Z,5616.00
2022-09-28T11:48:51.799Z,6132.00
2022-09-28T11:49:51.804Z,6316.00
2022-09-28T11:50:51.800Z,4988.00
2022-09-28T11:51:51.774Z,4452.00
2022-09-28T11:52:51.809Z,4868.00
2022-09-28T11:53:51.778Z,5056.00
2022-09-28T11:54:51.745Z,5088.00
2022-09-28T11:55:51.721Z,5272.00
2022-09-28T11:56:51.715Z,4332.00
2022-09-28T11:57:51.708Z,4108.00
2022-09-28T11:58:51.683Z,3964.00
2022-09-28T11:59:51.699Z,4028.00
2022-09-28T12:00:51.674Z,3948.00
2022-09-28T12:01:51.654Z,3740.00
2022-09-28T12:02:51.791Z,3944.00
2022-09-28T12:03:51.698Z,4600.00
2022-09-28T12:04:51.637Z,4596.00
2022-09-28T12:05:51.602Z,3764.00
2022-09-28T12:06:51.614Z,3908.00
2022-09-28T12:07:51.583Z,4148.00
2022-09-28T12:08:51.585Z,5144.00
2022-09-28T12:09:51.592Z,5344.00
2022-09-28T12:10:51.563Z,5560.00
2022-09-28T12:11:51.537Z,5832.00
2022-09-28T12:12:51.540Z,5300.00
2022-09-28T12:13:51.510Z,5424.00
2022-09-28T12:14:51.523Z,5592.00
2022-09-28T12:17:06.035Z,5924.00
2022-09-28T12:17:51.588Z,6328.00
2022-09-28T12:18:51.521Z,6848.00
2022-09-28T12:19:51.469Z,6792.00
2022-09-28T12:20:51.447Z,6408.00
2022-09-28T12:21:51.419Z,6544.00
2022-09-28T12:22:51.428Z,6832.00
2022-09-28T12:23:51.424Z,6804.00
2022-09-28T12:24:51.532Z,7032.00
2022-09-28T12:25:51.381Z,6904.00
2022-09-28T12:26:51.434Z,6688.00
2022-09-28T12:27:51.350Z,6332.00
2022-09-28T12:28:51.398Z,6588.00
2022-09-28T12:29:51.361Z,7212.00
2022-09-28T12:30:51.388Z,8268.00
2022-09-28T12:31:51.339Z,8820.00
2022-09-28T12:32:51.324Z,9284.00
2022-09-28T12:33:51.291Z,9568.00
2022-09-28T12:34:51.310Z,9536.00
2022-09-28T12:35:51.268Z,9300.00
2022-09-28T12:36:51.264Z,9412.00
2022-09-28T12:37:54.567Z,9776.00
2022-09-28T12:39:14.863Z,9984.00
2022-09-28T12:39:57.887Z,9892.00
2022-09-28T12:40:51.293Z,9492.00
2022-09-28T12:41:51.192Z,9136.00
2022-09-28T12:42:51.205Z,8844.00
2022-09-28T12:43:51.174Z,7824.00
2022-09-28T12:44:53.762Z,8476.00
2022-09-28T12:46:10.366Z,8988.00
2022-09-28T12:46:51.236Z,9380.00
2022-09-28T12:47:51.144Z,9672.00
2022-09-28T12:49:24.123Z,10048.00
2022-09-28T12:50:57.238Z,9268.00
2022-09-28T12:51:51.133Z,8896.00
2022-09-28T12:52:51.102Z,8660.00